Time;durP1;ratioP1;P1;durP2;ratioP2;P2;SDS_P1;SDS_P2;PMS_P1;PMS_P2;Temp;Humidity;BMP_temperature;BMP_pressure;BME280_temperature;BME280_humidity;BME280_pressure;Samples;Min_cycle;Max_cycle;Signal;HPM_P1;HPM_P2
2023/06/12 00:01:03;;;;;;;9.02;5.72;;;;;;;17.17;67.37;99966.94;5052105;28;20032;-78
2023/06/12 00:03:29;;;;;;;11.25;5.20;;;;;;;17.07;67.72;99960.63;5052043;28;20058;-78
2023/06/12 00:05:59;;;;;;;5.90;5.30;;;;;;;17.17;68.01;99977.44;5051872;28;20017;-78
2023/06/12 00:08:31;;;;;;;9.23;5.60;;;;;;;17.05;68.02;99965.97;5051917;28;20033;-78
2023/06/12 00:10:56;;;;;;;8.48;5.82;;;;;;;17.01;68.75;99959.22;5051888;28;20021;-78
2023/06/12 00:13:22;;;;;;;7.28;5.68;;;;;;;17.03;69.18;99960.00;5051951;28;20040;-78
2023/06/12 00:15:47;;;;;;;7.75;5.60;;;;;;;17.01;69.33;99968.91;5051823;28;20017;-78
2023/06/12 00:18:13;;;;;;;8.20;5.78;;;;;;;16.94;69.74;99966.72;5051926;28;20104;-78
2023/06/12 00:20:39;;;;;;;8.63;6.22;;;;;;;16.81;70.15;99943.97;5051908;28;20104;-78
2023/06/12 00:23:04;;;;;;;7.13;5.93;;;;;;;16.93;70.23;99966.81;5051387;28;20156;-78
2023/06/12 00:25:30;;;;;;;7.78;6.20;;;;;;;16.68;70.30;99936.84;5051654;28;20110;-78
2023/06/12 00:27:55;;;;;;;7.53;6.10;;;;;;;16.91;70.97;99969.56;5051763;28;20103;-78
2023/06/12 00:30:21;;;;;;;6.70;5.05;;;;;;;16.86;71.18;99966.41;5051819;28;20047;-78
2023/06/12 00:32:46;;;;;;;8.63;5.65;;;;;;;16.82;71.18;99970.19;5051330;28;20147;-78
2023/06/12 00:35:12;;;;;;;6.30;5.63;;;;;;;16.68;71.81;99949.16;5051709;28;20024;-78
2023/06/12 00:37:41;;;;;;;6.75;5.75;;;;;;;16.83;71.99;99982.38;5051608;28;20068;-78
2023/06/12 00:40:09;;;;;;;7.10;5.70;;;;;;;16.66;72.29;99961.59;5052519;28;20028;-78
2023/06/12 00:42:38;;;;;;;6.68;5.80;;;;;;;16.69;72.36;99971.91;5055819;28;20060;-78
2023/06/12 00:45:03;;;;;;;7.60;5.35;;;;;;;16.60;72.66;99957.59;5055554;28;20021;-78
2023/06/12 00:47:29;;;;;;;6.35;5.75;;;;;;;16.72;72.76;99987.47;5055680;28;20035;-78
2023/06/12 00:49:57;;;;;;;8.70;6.03;;;;;;;16.66;73.03;99987.91;5055498;28;20469;-78
2023/06/12 00:52:26;;;;;;;8.45;6.22;;;;;;;16.43;73.50;99963.97;5055473;28;20111;-78
2023/06/12 00:54:53;;;;;;;9.15;5.38;;;;;;;16.46;73.66;99971.63;5055456;28;20116;-78
2023/06/12 00:57:22;;;;;;;6.38;5.78;;;;;;;16.57;74.01;99996.41;5055887;28;20033;-78
2023/06/12 00:59:48;;;;;;;7.63;5.88;;;;;;;16.53;74.55;100002.81;5055123;28;20465;-78
2023/06/12 01:02:14;;;;;;;7.10;5.47;;;;;;;16.48;74.56;99994.38;5055542;28;20358;-78
2023/06/12 01:04:42;;;;;;;6.90;5.70;;;;;;;16.28;74.70;99962.34;5056020;28;20056;-78
2023/06/12 01:07:20;;;;;;;6.35;5.28;;;;;;;16.28;75.09;99966.75;5055128;28;20095;-78
2023/06/12 01:09:59;;;;;;;8.38;6.43;;;;;;;16.25;75.32;99964.31;5055204;28;20104;-78
2023/06/12 01:12:26;;;;;;;7.60;5.78;;;;;;;16.33;75.55;99977.81;5055191;28;20472;-78
2023/06/12 01:14:51;;;;;;;10.13;5.90;;;;;;;16.30;75.78;99960.44;5054997;28;20271;-78
2023/06/12 01:17:18;;;;;;;9.25;6.53;;;;;;;16.39;76.27;99993.16;5055028;28;20625;-78
2023/06/12 01:19:44;;;;;;;6.18;5.57;;;;;;;16.32;76.35;99982.22;5055031;28;20021;-78
2023/06/12 01:22:12;;;;;;;6.63;5.95;;;;;;;16.30;76.51;99986.72;5054957;28;20610;-78
2023/06/12 01:25:10;;;;;;;6.65;5.72;;;;;;;16.28;77.10;99986.00;5055050;28;20111;-78
2023/06/12 01:27:51;;;;;;;6.50;5.78;;;;;;;16.23;77.63;99988.09;5054919;28;20124;-80
2023/06/12 01:30:37;;;;;;;10.13;5.82;;;;;;;16.27;77.54;99988.72;5055132;28;20033;-78
2023/06/12 01:33:07;;;;;;;6.72;5.80;;;;;;;16.07;77.71;99953.22;5052976;28;20144;-78
2023/06/12 01:35:38;;;;;;;6.32;5.70;;;;;;;16.02;78.26;99963.19;5053590;28;20377;-78
2023/06/12 01:38:17;;;;;;;6.10;5.18;;;;;;;16.08;78.53;99984.63;5053132;28;20393;-78
2023/06/12 01:40:46;;;;;;;6.93;5.22;;;;;;;16.05;78.71;99987.44;5053671;28;20028;-78
2023/06/12 01:43:11;;;;;;;12.43;6.25;;;;;;;15.93;78.84;99973.34;5053398;28;20032;-77
2023/06/12 01:45:37;;;;;;;7.25;5.68;;;;;;;15.91;79.00;99974.38;5053432;28;20380;-78
2023/06/12 01:48:04;;;;;;;6.53;4.97;;;;;;;15.96;79.17;99983.63;5053160;28;20021;-78
2023/06/12 01:50:30;;;;;;;6.45;5.85;;;;;;;15.88;79.26;99966.66;5053127;28;20021;-78
2023/06/12 01:52:55;;;;;;;7.13;5.90;;;;;;;15.89;79.40;99969.22;5052866;28;20037;-78
2023/06/12 01:55:21;;;;;;;7.55;5.85;;;;;;;16.00;79.49;99992.16;5053408;28;20017;-78
2023/06/12 01:57:48;;;;;;;8.68;5.90;;;;;;;15.83;79.58;99969.59;5053022;28;20077;-78
2023/06/12 02:00:14;;;;;;;8.50;5.93;;;;;;;15.86;79.93;99981.69;5053216;28;20017;-78
2023/06/12 02:02:40;;;;;;;6.35;5.75;;;;;;;15.90;80.15;99994.53;5053163;28;20473;-78
2023/06/12 02:05:06;;;;;;;6.72;5.72;;;;;;;15.80;80.23;99987.31;5052910;28;20639;-78
2023/06/12 02:07:31;;;;;;;9.48;6.07;;;;;;;15.81;80.66;99995.13;5053011;28;20021;-78
2023/06/12 02:09:57;;;;;;;7.43;5.43;;;;;;;15.70;80.83;99976.56;5052891;28;20431;-78
2023/06/12 02:12:22;;;;;;;6.88;5.70;;;;;;;15.62;81.12;99974.38;5053064;28;20057;-78
2023/06/12 02:14:50;;;;;;;8.35;6.13;;;;;;;15.73;81.30;99993.91;5052943;28;20059;-78
2023/06/12 02:17:18;;;;;;;8.82;6.03;;;;;;;15.46;81.50;99964.00;5052914;28;20082;-78
2023/06/12 02:19:45;;;;;;;7.80;6.38;;;;;;;15.52;81.82;99972.44;5052766;28;20021;-78
2023/06/12 02:22:11;;;;;;;10.18;6.30;;;;;;;15.66;82.14;100004.78;5052462;28;20247;-78
2023/06/12 02:24:37;;;;;;;8.23;6.45;;;;;;;15.52;82.43;99991.66;5052928;28;20486;-78
2023/06/12 02:27:02;;;;;;;6.35;5.65;;;;;;;15.57;82.60;100001.88;5052540;28;20418;-78
2023/06/12 02:29:28;;;;;;;8.82;5.82;;;;;;;15.54;82.68;99992.38;5052759;28;20104;-78
2023/06/12 02:31:53;;;;;;;7.55;6.43;;;;;;;15.56;83.06;100005.44;5052470;28;20029;-78
2023/06/12 02:34:19;;;;;;;9.00;6.80;;;;;;;15.44;83.56;99992.13;5014901;28;1102528;-77
2023/06/12 02:36:46;;;;;;;10.02;6.25;;;;;;;15.24;83.70;99955.75;5053543;28;20057;-78
2023/06/12 02:39:15;;;;;;;7.57;6.72;;;;;;;15.33;83.78;99978.78;5053385;28;20037;-78
2023/06/12 02:41:41;;;;;;;7.00;6.30;;;;;;;15.22;84.14;99966.34;5053558;28;20033;-78
2023/06/12 02:44:07;;;;;;;8.73;6.80;;;;;;;15.39;84.45;99999.44;5053230;28;20048;-78
2023/06/12 02:46:32;;;;;;;6.47;5.88;;;;;;;15.30;84.72;99997.38;5053399;28;20067;-78
2023/06/12 02:48:58;;;;;;;7.57;5.95;;;;;;;15.13;85.11;99974.78;5053110;28;20025;-78
2023/06/12 02:51:23;;;;;;;8.07;6.28;;;;;;;15.34;84.81;100003.28;5053566;28;20233;-78
2023/06/12 02:53:49;;;;;;;7.60;5.90;;;;;;;15.12;84.91;99967.81;5053250;28;20476;-78
2023/06/12 02:56:14;;;;;;;7.65;6.85;;;;;;;15.21;85.16;99984.78;5053308;28;20468;-78
2023/06/12 02:58:40;;;;;;;8.95;6.20;;;;;;;15.26;85.46;100001.13;5053252;28;20022;-78
2023/06/12 03:01:06;;;;;;;7.65;6.32;;;;;;;15.16;85.33;99985.06;5052764;28;20029;-78
2023/06/12 03:03:32;;;;;;;11.63;6.68;;;;;;;15.13;85.65;99989.69;5052172;28;20036;-78
2023/06/12 03:05:57;;;;;;;7.18;6.15;;;;;;;15.27;85.28;100004.56;5053040;28;20404;-78
2023/06/12 03:08:23;;;;;;;9.32;6.20;;;;;;;15.14;85.74;99997.44;5053390;28;20070;-78
2023/06/12 03:10:48;;;;;;;7.88;5.82;;;;;;;15.23;85.65;100012.63;5053133;28;20032;-77
2023/06/12 03:13:14;;;;;;;9.95;7.22;;;;;;;15.17;85.82;100004.31;5052718;28;20380;-78
2023/06/12 03:15:40;;;;;;;8.65;6.65;;;;;;;15.15;85.66;99990.41;5052870;28;20029;-78
2023/06/12 03:18:05;;;;;;;7.63;6.47;;;;;;;15.08;85.88;99987.31;5052639;28;20432;-78
2023/06/12 03:20:34;;;;;;;7.00;5.90;;;;;;;15.20;85.95;100001.47;5052711;28;20037;-78
2023/06/12 03:23:00;;;;;;;9.82;6.13;;;;;;;15.21;85.82;100006.66;5052625;28;20033;-78
2023/06/12 03:25:26;;;;;;;7.72;6.75;;;;;;;15.15;85.94;100011.41;5052825;28;20397;-78
2023/06/12 03:27:51;;;;;;;9.93;6.40;;;;;;;15.11;86.30;99996.78;5052430;28;20182;-78
2023/06/12 03:30:17;;;;;;;11.00;6.93;;;;;;;15.22;86.12;100010.09;5052883;28;20043;-78
2023/06/12 03:32:42;;;;;;;9.15;6.63;;;;;;;15.21;86.17;100011.03;5052255;28;20029;-78
2023/06/12 03:35:08;;;;;;;6.80;6.10;;;;;;;15.23;86.44;100020.50;5052515;28;20554;-78
2023/06/12 03:37:33;;;;;;;7.60;6.40;;;;;;;15.31;86.58;100030.53;5052583;28;20469;-78
2023/06/12 03:39:58;;;;;;;7.13;6.38;;;;;;;15.34;86.74;100034.78;5052254;28;20024;-78
2023/06/12 03:42:24;;;;;;;9.65;6.90;;;;;;;15.35;86.72;100034.66;5052394;28;20059;-78
2023/06/12 03:44:49;;;;;;;7.35;6.30;;;;;;;15.14;86.82;100001.84;5052375;28;20032;-78
2023/06/12 03:47:14;;;;;;;9.63;6.88;;;;;;;15.33;87.03;100038.31;5051957;28;20025;-78
2023/06/12 03:49:40;;;;;;;10.57;7.13;;;;;;;15.18;87.25;100008.59;5052362;28;20104;-78
2023/06/12 03:52:06;;;;;;;7.65;5.90;;;;;;;15.42;87.04;100025.50;5051955;28;20075;-78
2023/06/12 03:54:32;;;;;;;7.07;6.43;;;;;;;15.25;87.02;100002.03;5052196;28;20477;-78
2023/06/12 03:56:57;;;;;;;10.85;7.10;;;;;;;15.38;86.51;100018.75;5052004;28;20100;-78
2023/06/12 03:59:22;;;;;;;7.35;6.07;;;;;;;15.44;86.13;100007.03;5052084;28;20025;-78
2023/06/12 04:01:48;;;;;;;8.75;5.80;;;;;;;15.61;86.01;100030.47;5051933;28;20354;-78
2023/06/12 04:04:14;;;;;;;6.68;5.88;;;;;;;15.80;85.34;100045.09;5051641;28;20043;-78
2023/06/12 04:06:40;;;;;;;8.68;5.80;;;;;;;16.02;84.69;100044.63;5052080;28;20029;-78
2023/06/12 04:09:12;;;;;;;7.60;6.13;;;;;;;16.26;83.13;100013.31;5051782;28;20094;-78
2023/06/12 04:11:40;;;;;;;;;;;;;;;16.70;82.13;100042.81;5052380;28;20472;-78
2023/06/12 04:14:06;;;;;;;6.32;5.72;;;;;;;16.83;80.82;100016.56;5051460;28;19915;-78
2023/06/12 04:16:32;;;;;;;7.20;6.25;;;;;;;17.17;79.67;100020.41;5051740;28;20029;-78
2023/06/12 04:19:01;;;;;;;10.32;5.82;;;;;;;17.68;78.33;100041.47;5051476;28;20358;-78
2023/06/12 04:21:26;;;;;;;6.32;4.97;;;;;;;18.17;76.31;100037.19;5052009;28;20376;-78
2023/06/12 04:23:53;;;;;;;5.93;5.13;;;;;;;18.91;73.13;100028.19;5051680;28;20029;-79
2023/06/12 04:26:20;;;;;;;5.95;5.22;;;;;;;20.22;69.13;100039.22;5051641;28;20051;-79
2023/06/12 04:28:46;;;;;;;6.20;5.35;;;;;;;21.34;64.77;100021.06;5051747;28;20107;-79
2023/06/12 04:31:15;;;;;;;8.80;6.85;;;;;;;21.97;62.83;100023.56;5051457;28;20104;-79
2023/06/12 04:33:41;;;;;;;8.85;5.53;;;;;;;21.83;62.64;100021.31;5051718;28;20488;-79
2023/06/12 04:36:07;;;;;;;5.93;5.20;;;;;;;21.27;63.85;100042.88;5051763;28;20029;-79
2023/06/12 04:38:36;;;;;;;5.95;5.35;;;;;;;20.60;65.56;100029.03;5051852;28;20384;-79
2023/06/12 04:41:02;;;;;;;6.72;5.38;;;;;;;20.35;66.79;100051.34;5051373;28;20056;-79
2023/06/12 04:43:27;;;;;;;6.63;4.82;;;;;;;20.12;67.48;100034.66;5051558;28;20028;-79
2023/06/12 04:45:53;;;;;;;5.18;4.10;;;;;;;20.38;66.82;100042.31;5051811;28;20025;-79
2023/06/12 04:48:20;;;;;;;5.60;4.80;;;;;;;21.12;64.64;100035.28;5051447;28;20378;-79
2023/06/12 04:50:49;;;;;;;8.85;5.00;;;;;;;22.45;61.94;100053.84;5051641;28;20114;-79
2023/06/12 04:53:19;;;;;;;8.95;5.07;;;;;;;23.46;58.89;100053.38;5051324;28;20404;-79
2023/06/12 04:55:50;;;;;;;6.03;4.60;;;;;;;23.66;57.93;100059.53;5051420;28;20114;-79
2023/06/12 04:58:18;;;;;;;6.83;5.20;;;;;;;23.26;58.97;100068.56;5051113;28;20111;-79
2023/06/12 05:00:47;;;;;;;5.82;4.47;;;;;;;23.00;59.47;100073.59;5051418;28;20346;-79
2023/06/12 05:03:16;;;;;;;5.05;4.57;;;;;;;22.28;60.86;100058.84;5051278;28;20033;-79
2023/06/12 05:05:42;;;;;;;4.90;4.40;;;;;;;21.88;62.03;100050.91;5051622;28;20025;-79
2023/06/12 05:08:07;;;;;;;5.50;4.40;;;;;;;21.89;62.39;100047.28;5051129;28;20017;-79
2023/06/12 05:10:33;;;;;;;4.78;4.13;;;;;;;22.40;61.51;100064.88;5051183;28;20021;-79
2023/06/12 05:12:58;;;;;;;6.68;4.88;;;;;;;23.00;59.27;100044.38;5051573;28;20021;-79
2023/06/12 05:15:23;;;;;;;5.63;4.20;;;;;;;24.04;57.11;100031.06;5051383;28;20068;-79
2023/06/12 05:17:49;;;;;;;7.95;4.25;;;;;;;24.86;55.43;100040.72;5051445;28;20036;-79
2023/06/12 05:20:15;;;;;;;6.13;4.47;;;;;;;24.89;54.56;100030.59;5051053;28;20044;-79
2023/06/12 05:22:41;;;;;;;5.13;4.45;;;;;;;24.38;55.53;100072.06;5051233;28;20025;-79
2023/06/12 05:25:07;;;;;;;6.28;4.53;;;;;;;23.57;57.33;100055.03;5051074;28;20075;-79
2023/06/12 05:27:32;;;;;;;5.38;4.13;;;;;;;23.41;58.68;100069.78;5054164;28;20021;-79
2023/06/12 05:29:58;;;;;;;5.05;4.50;;;;;;;23.41;58.32;100058.31;5055020;28;20033;-80
2023/06/12 05:32:23;;;;;;;6.03;4.85;;;;;;;23.51;57.44;100050.28;5055037;28;20017;-80
2023/06/12 05:34:48;;;;;;;5.80;4.50;;;;;;;23.73;57.11;100073.91;5054822;28;20044;-79
2023/06/12 05:37:14;;;;;;;8.63;5.38;;;;;;;24.68;55.28;100077.19;5054525;28;20032;-79
2023/06/12 05:39:39;;;;;;;6.55;4.82;;;;;;;24.81;54.25;100077.66;5054648;28;20045;-79
2023/06/12 05:42:05;;;;;;;8.07;4.68;;;;;;;24.17;56.14;100081.28;5054381;28;20056;-79
2023/06/12 05:44:31;;;;;;;7.15;4.57;;;;;;;23.49;57.05;100076.19;5053384;28;20024;-79
2023/06/12 05:46:56;;;;;;;7.20;4.38;;;;;;;23.18;58.31;100087.03;5054592;28;20021;-79
2023/06/12 05:49:22;;;;;;;7.22;4.57;;;;;;;22.73;59.98;100076.94;5054376;28;20067;-79
2023/06/12 05:51:47;;;;;;;8.50;4.57;;;;;;;22.78;59.57;100077.34;5054651;28;20025;-80
2023/06/12 05:54:12;;;;;;;6.28;4.70;;;;;;;22.71;60.16;100086.00;5054266;28;20029;-79
2023/06/12 05:56:38;;;;;;;5.55;5.00;;;;;;;22.80;59.84;100094.00;5054278;28;20108;-80
2023/06/12 05:59:03;;;;;;;8.02;5.20;;;;;;;23.13;59.59;100089.25;5054308;28;20377;-80
2023/06/12 06:01:31;;;;;;;4.75;4.25;;;;;;;23.19;58.50;100078.06;5054201;28;20024;-80
2023/06/12 06:03:58;;;;;;;6.22;4.70;;;;;;;23.50;59.02;100104.44;5054210;28;20029;-80
2023/06/12 06:06:24;;;;;;;6.25;4.43;;;;;;;23.62;57.60;100074.88;5054087;28;20029;-80
2023/06/12 06:08:49;;;;;;;6.35;5.22;;;;;;;23.72;57.96;100101.47;5054550;28;20033;-80
2023/06/12 06:11:15;;;;;;;4.50;3.75;;;;;;;23.96;57.30;100095.66;5053791;28;20049;-80
2023/06/12 06:13:43;;;;;;;5.00;4.30;;;;;;;24.26;56.12;100088.38;5054057;28;20056;-79
2023/06/12 06:16:10;;;;;;;5.22;4.30;;;;;;;24.35;55.57;100082.13;5054177;28;20591;-79
2023/06/12 06:18:36;;;;;;;5.97;4.75;;;;;;;24.50;55.12;100075.34;5053958;28;20029;-80
2023/06/12 06:21:01;;;;;;;4.70;4.25;;;;;;;24.87;54.31;100083.22;5053949;28;20028;-80
2023/06/12 06:23:27;;;;;;;5.68;4.25;;;;;;;25.09;54.76;100076.59;5053676;28;20025;-80
2023/06/12 06:25:52;;;;;;;5.60;4.15;;;;;;;25.75;53.26;100077.88;5053742;28;20053;-80
2023/06/12 06:28:17;;;;;;;7.25;4.07;;;;;;;26.55;51.32;100070.38;5053641;28;20033;-80
2023/06/12 06:30:43;;;;;;;4.72;4.28;;;;;;;28.10;48.60;100090.78;5053859;28;20477;-80
2023/06/12 06:33:08;;;;;;;3.97;3.60;;;;;;;29.55;46.43;100095.31;5033722;28;20495;-80
2023/06/12 06:35:34;;;;;;;6.80;3.88;;;;;;;31.41;43.78;100092.09;5033837;28;20529;-80
2023/06/12 06:37:59;;;;;;;7.72;3.58;;;;;;;32.67;40.80;100100.81;5032544;28;20033;-81
2023/06/12 06:40:25;;;;;;;3.78;3.47;;;;;;;33.96;39.33;100096.81;5033220;28;20037;-80
2023/06/12 06:42:52;;;;;;;7.88;4.10;;;;;;;34.46;37.71;100103.28;5036085;28;20060;-80
2023/06/12 06:45:18;;;;;;;6.05;3.78;;;;;;;34.32;37.35;100088.19;5037878;28;20025;-80
2023/06/12 06:47:43;;;;;;;4.13;3.50;;;;;;;34.77;35.98;100092.75;5033431;28;20516;-80
2023/06/12 06:50:09;;;;;;;4.22;3.75;;;;;;;34.77;35.80;100092.75;5033260;28;20496;-80
2023/06/12 06:52:34;;;;;;;4.18;3.40;;;;;;;35.44;35.80;100096.56;5052957;28;20048;-80
2023/06/12 06:55:00;;;;;;;4.05;3.50;;;;;;;36.13;35.45;100092.75;5053140;28;20057;-80
2023/06/12 06:57:25;;;;;;;3.67;3.38;;;;;;;36.31;34.40;100081.03;5053091;28;20032;-80
2023/06/12 06:59:54;;;;;;;4.97;3.60;;;;;;;35.83;34.23;100118.94;5053191;28;20027;-80
2023/06/12 07:02:20;;;;;;;3.72;3.42;;;;;;;35.47;33.24;100109.66;5052905;28;20041;-80
2023/06/12 07:04:45;;;;;;;3.85;3.47;;;;;;;35.64;33.10;100097.22;5053213;28;20032;-80
2023/06/12 07:07:10;;;;;;;3.30;3.00;;;;;;;35.67;33.27;100085.13;5052861;28;20526;-80
2023/06/12 07:09:36;;;;;;;3.78;3.05;;;;;;;36.13;33.14;100076.47;5052881;28;20052;-80
2023/06/12 07:12:01;;;;;;;4.38;3.10;;;;;;;36.76;31.28;100096.91;5050022;28;20410;-80
2023/06/12 07:14:26;;;;;;;3.58;3.20;;;;;;;36.11;31.79;100102.97;5042298;28;20037;-78
2023/06/12 07:16:52;;;;;;;4.22;3.13;;;;;;;36.46;31.61;100086.91;5033443;28;20035;-79
2023/06/12 07:19:17;;;;;;;6.68;3.40;;;;;;;36.09;31.24;100088.81;5032626;28;20117;-79
2023/06/12 07:21:42;;;;;;;3.70;3.40;;;;;;;36.61;30.69;100088.34;5032730;28;20104;-79
2023/06/12 07:24:08;;;;;;;3.88;3.25;;;;;;;37.31;30.02;100084.97;5032322;28;20076;-79
2023/06/12 07:26:33;;;;;;;3.97;3.15;;;;;;;36.28;30.28;100081.47;5032886;28;20018;-79
2023/06/12 07:28:58;;;;;;;4.40;2.88;;;;;;;35.25;31.15;100071.34;5032768;28;20466;-79
2023/06/12 07:31:24;;;;;;;4.95;3.00;;;;;;;35.35;31.25;100081.66;5032515;28;20047;-79
2023/06/12 07:33:49;;;;;;;3.70;3.00;;;;;;;34.53;31.66;100088.94;5032735;28;20037;-79
2023/06/12 07:36:15;;;;;;;4.20;3.10;;;;;;;33.76;31.92;100084.22;5032260;28;20032;-79
2023/06/12 07:38:41;;;;;;;3.85;3.20;;;;;;;33.82;31.69;100070.91;5031162;28;20041;-79
2023/06/12 07:41:07;;;;;;;3.70;3.20;;;;;;;32.87;32.66;100100.88;5032426;28;20025;-79
2023/06/12 07:43:34;;;;;;;2.92;2.72;;;;;;;31.52;33.86;100083.50;5032409;28;20025;-79
2023/06/12 07:46:01;;;;;;;6.43;2.88;;;;;;;31.32;35.20;100071.75;5032496;28;20040;-79
2023/06/12 07:48:26;;;;;;;7.47;2.95;;;;;;;32.08;33.93;100074.50;5032032;28;20025;-79
2023/06/12 07:50:51;;;;;;;4.50;3.30;;;;;;;32.80;31.91;100070.34;5032162;28;20035;-79
2023/06/12 07:53:17;;;;;;;4.53;3.15;;;;;;;32.41;33.07;100073.81;5031930;28;20485;-79
2023/06/12 07:55:42;;;;;;;3.38;2.70;;;;;;;31.53;33.68;100079.75;5032411;28;20351;-79
2023/06/12 07:58:08;;;;;;;3.30;3.00;;;;;;;30.24;34.99;100086.16;5032420;28;20416;-79
2023/06/12 08:00:35;;;;;;;4.20;3.40;;;;;;;28.55;36.79;100092.75;5032062;28;20022;-79
2023/06/12 08:03:02;;;;;;;3.92;2.80;;;;;;;27.58;37.82;100092.09;5032136;28;20472;-77
2023/06/12 08:05:27;;;;;;;5.30;3.55;;;;;;;27.24;38.07;100078.09;5031977;28;20536;-78
2023/06/12 08:07:53;;;;;;;3.75;3.45;;;;;;;26.56;39.12;100071.19;5031997;28;20112;-78
2023/06/12 08:10:19;;;;;;;5.78;3.10;;;;;;;25.85;39.60;100083.94;5032088;28;20029;-78
2023/06/12 08:12:45;;;;;;;4.60;3.20;;;;;;;25.39;41.04;100067.31;5031979;28;20112;-80
2023/06/12 08:15:11;;;;;;;5.00;3.08;;;;;;;25.12;41.54;100054.97;5031621;28;20061;-79
2023/06/12 08:17:37;;;;;;;5.88;3.42;;;;;;;25.20;41.57;100086.19;5031972;28;20045;-80
2023/06/12 08:20:10;;;;;;;4.03;3.30;;;;;;;25.03;41.79;100071.88;5031957;28;20026;-79
2023/06/12 08:22:36;;;;;;;4.18;3.30;;;;;;;25.01;42.05;100075.66;5032090;28;20385;-79
2023/06/12 08:25:03;;;;;;;4.43;3.55;;;;;;;24.84;42.51;100054.19;5032122;28;20032;-79
2023/06/12 08:27:29;;;;;;;4.85;3.40;;;;;;;24.49;42.99;100055.06;5032171;28;20053;-79
2023/06/12 08:29:54;;;;;;;6.57;4.47;;;;;;;24.38;43.26;100087.22;5031868;28;20022;-79
2023/06/12 08:32:20;;;;;;;4.35;3.72;;;;;;;24.15;43.62;100086.75;5030272;28;20172;-79
2023/06/12 08:34:45;;;;;;;4.90;3.58;;;;;;;24.13;44.49;100086.06;5031776;28;20045;-79
2023/06/12 08:37:11;;;;;;;6.75;3.88;;;;;;;24.12;44.44;100049.78;5048189;28;20041;-76
2023/06/12 08:39:36;;;;;;;4.93;3.80;;;;;;;24.34;44.57;100062.66;5051821;28;20492;-75
2023/06/12 08:42:05;;;;;;;4.35;3.40;;;;;;;24.35;44.84;100053.69;5051703;28;20029;-75
2023/06/12 08:44:31;;;;;;;7.85;3.90;;;;;;;23.98;45.23;100059.13;5051181;28;20025;-75
2023/06/12 08:46:59;;;;;;;4.50;4.03;;;;;;;24.00;45.81;100074.91;5051626;28;20028;-75
2023/06/12 08:49:26;;;;;;;5.18;4.10;;;;;;;24.05;45.93;100067.31;5051230;28;20028;-75
2023/06/12 08:51:51;;;;;;;4.38;3.53;;;;;;;23.93;45.51;100069.34;5051696;28;20044;-75
2023/06/12 08:54:17;;;;;;;4.18;3.78;;;;;;;23.98;45.96;100059.13;5051371;28;20073;-75
2023/06/12 08:56:43;;;;;;;4.28;3.88;;;;;;;23.92;45.97;100051.69;5051644;28;20036;-75
2023/06/12 08:59:09;;;;;;;8.23;4.30;;;;;;;23.99;46.09;100058.13;5051417;28;20404;-75
2023/06/12 09:01:39;;;;;;;5.82;3.63;;;;;;;23.92;45.85;100046.38;5052614;28;20055;-75
2023/06/12 09:04:26;;;;;;;4.60;3.50;;;;;;;23.83;45.98;100039.28;5055175;28;20048;-75
2023/06/12 09:07:01;;;;;;;4.82;3.80;;;;;;;23.67;46.49;100034.59;5054218;28;20028;-75
2023/06/12 09:09:35;;;;;;;5.35;3.50;;;;;;;23.65;46.19;100063.16;5055092;28;20497;-76
2023/06/12 09:12:01;;;;;;;5.65;4.07;;;;;;;23.45;46.16;100045.56;5055328;28;20028;-75
2023/06/12 09:14:26;;;;;;;4.95;3.25;;;;;;;23.04;46.18;100021.03;5055163;28;20419;-76
2023/06/12 09:16:51;;;;;;;6.82;3.30;;;;;;;23.26;46.13;100031.34;5055129;28;20404;-75
2023/06/12 09:19:17;;;;;;;4.05;3.55;;;;;;;23.41;45.09;100069.78;5054960;28;20100;-76
2023/06/12 09:21:47;;;;;;;4.90;3.08;;;;;;;23.38;45.69;100045.28;5055083;28;20021;-76
2023/06/12 09:24:15;;;;;;;5.68;3.70;;;;;;;23.26;45.28;100019.88;5054985;28;20024;-78
2023/06/12 09:26:42;;;;;;;5.35;3.10;;;;;;;23.39;44.74;100039.00;5054968;28;20120;-75
2023/06/12 09:29:07;;;;;;;3.30;3.00;;;;;;;23.58;44.09;100051.41;5054829;28;20036;-75
2023/06/12 09:31:33;;;;;;;3.72;3.25;;;;;;;23.57;43.45;100020.47;5055441;28;20516;-78
2023/06/12 09:33:58;;;;;;;4.95;3.13;;;;;;;23.86;43.89;100045.16;5054935;28;20053;-78
2023/06/12 09:36:28;;;;;;;4.95;3.30;;;;;;;24.03;44.37;100043.53;5054817;28;20028;-78
2023/06/12 09:38:53;;;;;;;3.35;3.05;;;;;;;23.94;43.95;100019.66;5054886;28;20036;-75
2023/06/12 09:41:24;;;;;;;3.45;3.15;;;;;;;24.06;44.78;100029.94;5054464;28;20025;-76
2023/06/12 09:44:01;;;;;;;4.10;3.70;;;;;;;24.11;44.19;100040.97;5054782;28;20388;-75
2023/06/12 09:46:26;;;;;;;7.53;3.33;;;;;;;24.13;44.55;100041.66;5054475;28;20037;-75
2023/06/12 09:48:55;;;;;;;5.95;3.50;;;;;;;23.85;44.00;100016.88;5054509;28;20029;-75
2023/06/12 09:51:23;;;;;;;4.28;3.00;;;;;;;23.95;43.85;100037.28;5054328;28;20063;-75
2023/06/12 09:53:50;;;;;;;6.13;3.67;;;;;;;23.86;44.46;100031.84;5054462;28;20075;-75
2023/06/12 09:56:17;;;;;;;6.15;3.63;;;;;;;23.69;44.69;100011.38;5054140;28;20373;-76
2023/06/12 09:58:47;;;;;;;3.97;3.60;;;;;;;23.46;44.65;100010.84;5054531;28;20038;-75
2023/06/12 10:01:15;;;;;;;4.70;3.57;;;;;;;23.53;45.46;100021.75;5054431;28;20025;-78
2023/06/12 10:03:44;;;;;;;4.18;3.22;;;;;;;23.50;45.83;100032.66;5054425;28;20271;-78
2023/06/12 10:06:12;;;;;;;5.22;3.60;;;;;;;23.40;45.76;100022.06;5054443;28;20036;-78
2023/06/12 10:08:38;;;;;;;6.72;3.63;;;;;;;23.05;46.19;100002.31;5053998;28;20492;-78
2023/06/12 10:11:06;;;;;;;5.38;3.60;;;;;;;23.15;46.52;100040.31;5054511;28;20036;-78
2023/06/12 10:13:34;;;;;;;6.00;3.70;;;;;;;23.09;45.69;100026.75;5053660;28;20033;-75
2023/06/12 10:16:01;;;;;;;5.20;3.60;;;;;;;22.98;46.11;100025.09;5054008;28;20509;-75
2023/06/12 10:18:28;;;;;;;4.10;3.60;;;;;;;22.88;45.75;100006.50;5051903;28;20040;-75
2023/06/12 10:20:53;;;;;;;6.90;4.00;;;;;;;22.85;46.30;99990.84;5053932;28;20025;-75
2023/06/12 10:23:21;;;;;;;7.95;3.70;;;;;;;22.76;46.28;99989.03;5053490;28;20033;-75
2023/06/12 10:25:47;;;;;;;6.32;4.00;;;;;;;22.74;45.28;99990.97;5054071;28;20036;-75
2023/06/12 10:28:13;;;;;;;5.57;4.20;;;;;;;22.83;45.84;99995.44;5053878;28;20527;-75
2023/06/12 10:31:12;;;;;;;5.70;3.58;;;;;;;23.10;45.25;100009.84;5053631;28;20033;-75
2023/06/12 10:33:39;;;;;;;8.30;3.70;;;;;;;23.40;44.87;99998.16;5053544;28;20055;-78
2023/06/12 10:36:11;;;;;;;9.23;4.78;;;;;;;23.33;44.57;99976.63;5054196;28;20076;-78
2023/06/12 10:39:06;;;;;;;3.95;3.55;;;;;;;23.51;44.33;99979.38;5053822;28;20116;-78
2023/06/12 10:41:32;;;;;;;7.18;5.50;;;;;;;23.27;43.81;99989.66;5053709;28;20033;-78
2023/06/12 10:43:58;;;;;;;4.10;3.70;;;;;;;23.18;44.50;99988.72;5053556;28;20071;-78
2023/06/12 10:46:23;;;;;;;6.85;4.53;;;;;;;23.17;45.69;99973.72;5053592;28;20591;-78
2023/06/12 10:48:49;;;;;;;5.00;3.90;;;;;;;23.27;44.71;99989.66;5054015;28;20061;-78
2023/06/12 10:51:14;;;;;;;3.55;3.10;;;;;;;23.06;44.76;99950.84;5053686;28;20025;-78
2023/06/12 10:53:44;;;;;;;9.70;4.28;;;;;;;23.26;45.16;99980.00;5053210;28;20035;-76
2023/06/12 10:56:09;;;;;;;3.78;3.38;;;;;;;23.26;43.35;99964.91;5053566;28;20492;-79
2023/06/12 10:58:40;;;;;;;5.53;3.63;;;;;;;23.30;43.84;99976.94;5052548;28;20032;-81
2023/06/12 11:01:10;;;;;;;4.38;3.40;;;;;;;23.25;44.06;99959.72;5051994;28;20036;-78
2023/06/12 11:03:42;;;;;;;4.45;3.25;;;;;;;23.36;44.39;99970.19;5053134;28;20028;-79
2023/06/12 11:06:13;;;;;;;6.45;4.05;;;;;;;23.41;44.36;99966.09;5053321;28;20067;-79
2023/06/12 11:08:41;;;;;;;7.03;4.28;;;;;;;23.24;43.35;99950.09;5053022;28;20031;-79
2023/06/12 11:11:08;;;;;;;7.75;4.30;;;;;;;23.50;43.65;99974.19;5052983;28;20017;-79
2023/06/12 11:13:35;;;;;;;4.15;3.60;;;;;;;23.51;43.79;99942.16;5053112;28;20025;-81
2023/06/12 11:16:01;;;;;;;3.78;3.33;;;;;;;23.75;42.46;99935.47;5053165;28;20024;-79
2023/06/12 11:18:26;;;;;;;7.20;3.78;;;;;;;23.94;42.98;99937.19;5052745;28;20427;-80
2023/06/12 11:20:56;;;;;;;6.13;3.72;;;;;;;23.86;43.04;99935.25;5052906;28;20021;-79
2023/06/12 11:23:23;;;;;;;4.78;3.65;;;;;;;23.69;42.83;99947.53;5052291;28;20033;-79
2023/06/12 11:25:49;;;;;;;4.22;3.53;;;;;;;23.45;43.78;99923.28;5052367;28;20052;-79
2023/06/12 11:28:19;;;;;;;4.57;3.70;;;;;;;23.61;44.01;99948.25;5052984;28;20112;-80